Time;durP1;ratioP1;P1;durP2;ratioP2;P2;SDS_P1;SDS_P2;PMS_P1;PMS_P2;Temp;Humidity;BMP_temperature;BMP_pressure;BME280_temperature;BME280_humidity;BME280_pressure;Samples;Min_cycle;Max_cycle;Signal;HPM_P1;HPM_P2
2022/06/22 00:01:04;;;;;;;;;;;;;;;18.33;72.19;99825.66;4925941;29;1911;-49
2022/06/22 00:03:29;;;;;;;;;;;;;;;17.70;67.56;99847.22;4954752;28;1259;-49
2022/06/22 00:05:55;;;;;;;;;;;;;;;17.47;70.41;99842.72;4938732;29;1058;-50
2022/06/22 00:08:21;;;;;;;;;;;;;;;18.66;69.93;99855.75;4941698;29;1146;-49
2022/06/22 00:10:49;;;;;;;;;;;;;;;17.07;65.41;99859.59;4935443;29;999;-49
2022/06/22 00:13:16;;;;;;;;;;;;;;;18.05;72.48;99860.63;4952171;28;1015;-48
2022/06/22 00:15:58;;;;;;;;;;;;;;;17.90;68.35;99872.72;4940203;29;1036;-49
2022/06/22 00:18:23;;;;;;;;;;;;;;;17.34;70.37;99856.13;4936909;29;1153;-50
2022/06/22 00:20:50;;;;;;;;;;;;;;;18.85;69.84;99858.34;4958741;29;1977;-49
2022/06/22 00:23:15;;;;;;;;;;;;;;;17.05;65.46;99857.13;4959030;28;1082;-48
2022/06/22 00:25:40;;;;;;;;;;;;;;;18.16;72.21;99863.97;4958051;29;1189;-50
2022/06/22 00:28:28;;;;;;;;;;;;;;;17.93;68.52;99858.38;4958386;28;1029;-49
2022/06/22 00:30:59;;;;;;;;;;;;;;;17.35;70.89;99866.00;4958336;28;1161;-50
2022/06/22 00:33:24;;;;;;;;;;;;;;;18.74;69.76;99860.53;4957664;29;897;-48
2022/06/22 00:35:54;;;;;;;;;;;;;;;17.04;65.11;99854.69;4957956;28;1070;-48
2022/06/22 00:38:19;;;;;;;;;;;;;;;18.31;72.44;99858.16;4957874;29;1046;-45
2022/06/22 00:40:46;;;;;;;;;;;;;;;17.87;67.97;99874.13;4958058;28;1980;-50
2022/06/22 00:43:12;;;;;;;;;;;;;;;17.22;69.86;99853.84;4959726;28;1007;-47
2022/06/22 00:45:38;;;;;;;;;;;;;;;18.92;70.19;99880.00;4941228;29;1039;-46
2022/06/22 00:48:07;;;;;;;;;;;;;;;17.15;65.55;99908.34;4940652;29;1228;-50
2022/06/22 00:50:37;;;;;;;;;;;;;;;18.17;72.17;99920.66;4939986;29;1175;-49
2022/06/22 00:53:02;;;;;;;;;;;;;;;17.92;68.19;99925.50;4958582;28;1240;-50
2022/06/22 00:55:31;;;;;;;;;;;;;;;17.02;69.14;99936.56;4957915;29;1133;-50
2022/06/22 00:58:01;;;;;;;;;;;;;;;18.86;71.77;99933.53;4957967;28;983;-49
2022/06/22 01:00:28;;;;;;;;;;;;;;;17.17;65.28;99949.28;4957393;28;1977;-50
2022/06/22 01:02:55;;;;;;;;;;;;;;;18.09;71.91;99964.25;4941141;29;1119;-47
2022/06/22 01:05:21;;;;;;;;;;;;;;;18.04;68.69;99964.34;4938702;28;1248;-49
2022/06/22 01:07:55;;;;;;;;;;;;;;;17.02;69.03;99958.53;4954965;29;1090;-50
2022/06/22 01:10:23;;;;;;;;;;;;;;;18.96;71.31;99967.22;4940054;29;991;-51
2022/06/22 01:12:53;;;;;;;;;;;;;;;17.14;65.58;99982.81;4957954;28;1078;-50
2022/06/22 01:15:30;;;;;;;;;;;;;;;18.15;72.05;99995.25;4957885;28;1055;-47
2022/06/22 01:17:56;;;;;;;;;;;;;;;17.98;67.94;99984.81;4958366;28;1133;-50
2022/06/22 01:20:21;;;;;;;;;;;;;;;17.08;69.25;99991.16;4957366;28;1922;-47
2022/06/22 01:23:01;;;;;;;;;;;;;;;18.92;71.56;99995.69;4957231;29;1051;-50
2022/06/22 01:25:27;;;;;;;;;;;;;;;17.01;65.28;99985.22;4940704;29;1130;-48
2022/06/22 01:27:52;;;;;;;;;;;;;;;18.22;71.89;99992.91;4957892;28;1085;-47
2022/06/22 01:30:28;;;;;;;;;;;;;;;18.08;67.89;100000.31;4957288;28;869;-49
2022/06/22 01:32:55;;;;;;;;;;;;;;;17.38;70.24;100000.03;4952247;28;995;-47
2022/06/22 01:35:30;;;;;;;;;;;;;;;19.18;70.66;100003.38;4943770;29;1078;-48
2022/06/22 01:37:56;;;;;;;;;;;;;;;17.12;64.88;100004.28;4939193;29;1182;-50
2022/06/22 01:40:22;;;;;;;;;;;;;;;18.00;72.16;100012.81;4957537;28;1919;-50
2022/06/22 01:42:51;;;;;;;;;;;;;;;17.89;67.96;100003.09;4940473;28;1173;-50
2022/06/22 01:45:18;;;;;;;;;;;;;;;17.27;70.16;100001.31;4961399;28;1022;-50
2022/06/22 01:47:50;;;;;;;;;;;;;;;19.12;70.81;100010.97;4961422;28;1208;-50
2022/06/22 01:50:21;;;;;;;;;;;;;;;17.20;64.88;99998.13;4959680;28;1252;-49
2022/06/22 01:52:53;;;;;;;;;;;;;;;18.08;72.31;100001.13;4944059;28;1071;-49
2022/06/22 01:55:21;;;;;;;;;;;;;;;17.89;67.74;99997.59;4961128;29;892;-50
2022/06/22 01:57:49;;;;;;;;;;;;;;;17.39;70.50;100012.69;4961441;28;963;-47
2022/06/22 02:00:16;;;;;;;;;;;;;;;19.17;70.45;100012.78;4961084;28;1960;-47
2022/06/22 02:02:42;;;;;;;;;;;;;;;17.17;65.15;100005.03;4960949;29;1058;-49
2022/06/22 02:05:22;;;;;;;;;;;;;;;18.11;72.20;100022.53;4958744;28;1235;-46
2022/06/22 02:07:59;;;;;;;;;;;;;;;18.01;67.22;100017.22;4960415;29;922;-50
2022/06/22 02:10:25;;;;;;;;;;;;;;;17.43;70.65;100010.97;4960841;28;1003;-47
2022/06/22 02:13:03;;;;;;;;;;;;;;;19.01;69.62;100013.09;4961179;28;1030;-49
2022/06/22 02:15:45;;;;;;;;;;;;;;;17.04;64.59;100009.31;4960855;28;1172;-48
2022/06/22 02:18:20;;;;;;;;;;;;;;;18.59;71.96;100015.06;4942616;29;1098;-47
2022/06/22 02:20:45;;;;;;;;;;;;;;;17.51;66.46;100019.66;4945061;28;1906;-49
2022/06/22 02:23:14;;;;;;;;;;;;;;;17.78;71.68;100025.28;4960489;28;1122;-47
2022/06/22 02:25:41;;;;;;;;;;;;;;;18.73;68.56;100029.66;4943887;28;1142;-50
2022/06/22 02:28:07;;;;;;;;;;;;;;;17.00;64.70;100027.50;4943647;29;1039;-49
2022/06/22 02:30:32;;;;;;;;;;;;;;;18.66;71.51;100031.97;4960471;28;995;-48
2022/06/22 02:32:58;;;;;;;;;;;;;;;17.76;66.52;100026.69;4949900;29;907;-51
2022/06/22 02:35:23;;;;;;;;;;;;;;;17.51;71.09;100038.91;4960571;28;943;-48
2022/06/22 02:37:56;;;;;;;;;;;;;;;19.01;69.09;100037.09;4960343;28;1129;-46
2022/06/22 02:40:22;;;;;;;;;;;;;;;17.05;64.73;100041.16;4943238;29;1977;-51
2022/06/22 02:45:32;;;;;;;;;;;;;;;17.69;66.17;100051.00;4945339;29;1014;-52
2022/06/22 02:47:58;;;;;;;;;;;;;;;17.61;71.17;100044.22;4960762;28;1145;-53
2022/06/22 02:50:33;;;;;;;;;;;;;;;18.84;68.87;100044.00;4943171;29;1007;-51
2022/06/22 02:53:00;;;;;;;;;;;;;;;16.85;65.65;100050.44;4959761;28;1116;-52
2022/06/22 02:55:26;;;;;;;;;;;;;;;17.89;72.48;100063.59;4959431;28;1394;-50
2022/06/22 02:57:51;;;;;;;;;;;;;;;17.69;66.97;100064.75;4942471;28;1019;-50
2022/06/22 03:00:20;;;;;;;;;;;;;;;17.69;71.34;100060.06;4965869;28;1910;-50
2022/06/22 03:02:46;;;;;;;;;;;;;;;19.45;69.88;100058.44;4966011;28;1082;-50
2022/06/22 03:05:11;;;;;;;;;;;;;;;17.22;64.63;100057.16;4941600;29;1062;-47
2022/06/22 03:07:38;;;;;;;;;;;;;;;17.86;72.41;100048.50;4961467;28;1133;-49
2022/06/22 03:10:04;;;;;;;;;;;;;;;17.19;69.08;100049.50;4960427;29;1062;-49
2022/06/22 03:12:29;;;;;;;;;;;;;;;16.06;70.49;100062.50;4959313;28;909;-47
2022/06/22 03:14:56;;;;;;;;;;;;;;;16.68;65.94;100074.81;4960204;29;1007;-47
2022/06/22 03:17:23;;;;;;;;;;;;;;;16.83;62.79;100071.06;4960226;29;998;-50
2022/06/22 03:23:21;;;;;;;;;;;;;;;16.80;58.99;100077.16;4957505;29;912;-52
2022/06/22 03:25:51;;;;;;;;;;;;;;;16.84;57.84;100083.69;4959769;28;1023;-50
2022/06/22 03:28:17;;;;;;;;;;;;;;;16.81;56.76;100084.28;4958776;28;1257;-52
2022/06/22 03:30:51;;;;;;;;;;;;;;;16.76;55.92;100083.22;4941439;28;1074;-49
2022/06/22 03:33:21;;;;;;;;;;;;;;;16.77;55.05;100112.31;4943020;29;1147;-51
2022/06/22 03:35:52;;;;;;;;;;;;;;;16.72;54.49;100106.06;4944683;29;1158;-49
2022/06/22 03:38:18;;;;;;;;;;;;;;;18.00;58.16;100114.63;4937956;29;1023;-52
2022/06/22 03:40:47;;;;;;;;;;;;;;;17.27;57.46;100127.72;4943661;29;1992;-53
2022/06/22 03:43:32;;;;;;;;;;;;;;;17.17;55.89;100127.84;4959130;29;1022;-50
2022/06/22 03:46:00;;;;;;;;;;;;;;;17.03;54.69;100136.78;4940404;29;1129;-51
2022/06/22 03:48:29;;;;;;;;;;;;;;;16.95;53.96;100126.44;4940898;29;1236;-52
2022/06/22 03:54:19;;;;;;;;;;;;;;;16.84;52.88;100138.59;4955896;29;1148;-49
2022/06/22 03:56:46;;;;;;;;;;;;;;;16.94;53.57;100146.75;4957615;28;1165;-51
2022/06/22 03:59:12;;;;;;;;;;;;;;;17.06;53.55;100144.44;4942476;29;1371;-53
2022/06/22 04:01:38;;;;;;;;;;;;;;;16.87;53.30;100133.38;4957305;28;1938;-51
2022/06/22 04:04:03;;;;;;;;;;;;;;;16.79;52.94;100150.47;4940910;29;1120;-50
2022/06/22 04:06:31;;;;;;;;;;;;;;;17.62;55.16;100153.09;4942008;29;1039;-52
2022/06/22 04:08:57;;;;;;;;;;;;;;;16.01;61.23;100142.06;4946250;28;1181;-51
2022/06/22 04:11:34;;;;;;;;;;;;;;;15.99;59.17;100127.84;4941069;29;1255;-51
2022/06/22 04:14:02;;;;;;;;;;;;;;;16.54;55.05;100135.06;4957998;29;1160;-54
2022/06/22 04:16:30;;;;;;;;;;;;;;;18.05;57.52;100127.50;4958404;28;1405;-54
2022/06/22 04:18:56;;;;;;;;;;;;;;;17.27;56.68;100130.47;4943392;28;1554;-52
2022/06/22 04:21:29;;;;;;;;;;;;;;;17.04;55.22;100138.41;4958934;28;1936;-53
2022/06/22 04:23:55;;;;;;;;;;;;;;;17.02;53.94;100135.13;4938281;29;1380;-52
2022/06/22 04:26:24;;;;;;;;;;;;;;;16.88;53.29;100143.25;4962404;28;970;-51
2022/06/22 04:28:50;;;;;;;;;;;;;;;16.87;52.58;100144.34;4958713;28;1191;-51
2022/06/22 04:31:17;;;;;;;;;;;;;;;16.82;52.42;100143.59;4941409;29;1115;-51
2022/06/22 04:33:47;;;;;;;;;;;;;;;16.76;52.27;100149.13;4941426;29;1004;-53
2022/06/22 04:36:14;;;;;;;;;;;;;;;16.72;51.87;100139.03;4957230;28;1181;-53
2022/06/22 04:38:44;;;;;;;;;;;;;;;16.74;51.65;100145.03;4940517;29;1537;-53
2022/06/22 04:41:19;;;;;;;;;;;;;;;18.03;54.35;100147.03;4942290;29;1918;-50
2022/06/22 04:43:46;;;;;;;;;;;;;;;17.18;54.45;100137.69;4962729;28;1381;-50
2022/06/22 04:46:14;;;;;;;;;;;;;;;16.99;53.45;100141.22;4963182;28;1209;-51
2022/06/22 04:48:46;;;;;;;;;;;;;;;16.93;52.83;100154.19;4958249;28;1379;-49
2022/06/22 04:51:13;;;;;;;;;;;;;;;16.86;52.27;100141.91;4957878;29;999;-48
2022/06/22 04:53:50;;;;;;;;;;;;;;;16.77;52.03;100145.28;4940091;29;1410;-51
2022/06/22 04:56:16;;;;;;;;;;;;;;;16.80;51.75;100141.09;4941760;28;1075;-51
2022/06/22 04:58:45;;;;;;;;;;;;;;;16.75;51.53;100144.72;4939354;29;1165;-51
2022/06/22 05:01:15;;;;;;;;;;;;;;;16.69;51.35;100154.13;4940886;28;1906;-50
2022/06/22 05:03:41;;;;;;;;;;;;;;;18.01;53.76;100145.72;4957893;29;1113;-54
2022/06/22 05:06:08;;;;;;;;;;;;;;;17.21;53.80;100143.44;4957526;29;1209;-47
2022/06/22 05:08:35;;;;;;;;;;;;;;;17.07;52.98;100153.50;4940439;29;1525;-50
2022/06/22 05:11:05;;;;;;;;;;;;;;;16.95;52.63;100153.09;4939560;29;995;-50
2022/06/22 05:13:35;;;;;;;;;;;;;;;16.90;51.92;100153.94;4935974;29;1140;-52
2022/06/22 05:16:01;;;;;;;;;;;;;;;16.85;51.70;100153.97;4941005;28;1231;-53
2022/06/22 05:18:27;;;;;;;;;;;;;;;16.84;51.54;100157.84;4939194;28;1337;-52
2022/06/22 05:20:54;;;;;;;;;;;;;;;16.78;51.23;100157.06;4937469;29;1898;-52
2022/06/22 05:23:20;;;;;;;;;;;;;;;16.84;51.88;100163.31;4953230;29;1472;-53
2022/06/22 05:25:46;;;;;;;;;;;;;;;17.82;55.24;100159.41;4957732;28;1172;-50
2022/06/22 05:28:17;;;;;;;;;;;;;;;15.46;60.32;100171.41;4935749;29;1412;-52
2022/06/22 05:30:54;;;;;;;;;;;;;;;16.47;54.96;100167.53;4938292;29;1158;-52
2022/06/22 05:33:20;;;;;;;;;;;;;;;17.61;55.87;100152.28;4941385;28;1212;-49
2022/06/22 05:35:47;;;;;;;;;;;;;;;15.92;60.33;100152.00;4957707;29;986;-54
2022/06/22 05:38:13;;;;;;;;;;;;;;;15.81;58.53;100156.75;4943368;28;1245;-52
2022/06/22 05:40:39;;;;;;;;;;;;;;;17.87;57.74;100162.09;4956816;29;1975;-51
2022/06/22 05:43:04;;;;;;;;;;;;;;;17.06;56.44;100158.16;4963403;28;1026;-51
2022/06/22 05:45:31;;;;;;;;;;;;;;;16.94;54.90;100160.50;4945945;29;1339;-53
2022/06/22 05:47:57;;;;;;;;;;;;;;;16.77;53.96;100150.75;4944204;29;1469;-52
2022/06/22 05:50:22;;;;;;;;;;;;;;;16.74;52.99;100156.81;4938767;28;1227;-50
2022/06/22 05:52:49;;;;;;;;;;;;;;;16.71;52.66;100162.88;4956532;29;1160;-51
2022/06/22 05:55:16;;;;;;;;;;;;;;;16.71;52.13;100162.09;4942612;28;1212;-51
2022/06/22 05:58:02;;;;;;;;;;;;;;;18.30;50.47;100151.03;4939850;29;1213;-53
2022/06/22 06:00:28;;;;;;;;;;;;;;;17.77;52.67;100155.63;4955961;28;1981;-54
2022/06/22 06:02:57;;;;;;;;;;;;;;;17.66;53.68;100156.09;4940122;29;1225;-53
2022/06/22 06:05:27;;;;;;;;;;;;;;;17.54;54.29;100151.00;4939348;29;1297;-53
2022/06/22 06:07:56;;;;;;;;;;;;;;;17.46;55.19;100147.00;4959489;28;1027;-52
2022/06/22 06:10:23;;;;;;;;;;;;;;;17.39;55.88;100150.09;4956932;28;1564;-54
2022/06/22 06:12:51;;;;;;;;;;;;;;;17.37;56.29;100146.81;4956758;29;1101;-54
2022/06/22 06:15:17;;;;;;;;;;;;;;;17.34;56.51;100152.91;4955879;28;1522;-51
2022/06/22 06:17:44;;;;;;;;;;;;;;;17.28;57.03;100152.13;4942296;29;1222;-47
2022/06/22 06:20:37;;;;;;;;;;;;;;;17.24;57.25;100153.84;4939282;29;1902;-53
2022/06/22 06:23:08;;;;;;;;;;;;;;;17.19;57.52;100155.84;4950369;28;1427;-51
2022/06/22 06:28:35;;;;;;;;;;;;;;;17.15;58.08;100165.75;4941849;28;1249;-52
2022/06/22 06:31:05;;;;;;;;;;;;;;;17.07;58.47;100159.81;4939935;29;1277;-53
2022/06/22 06:33:31;;;;;;;;;;;;;;;17.02;58.74;100157.09;4951084;28;1255;-52
2022/06/22 06:36:20;;;;;;;;;;;;;;;17.01;58.68;100165.66;4968085;28;1236;-54
2022/06/22 06:39:02;;;;;;;;;;;;;;;16.97;58.81;100154.44;4947090;29;1530;-50
2022/06/22 06:41:34;;;;;;;;;;;;;;;16.96;59.04;100157.44;4938674;29;1911;-52
2022/06/22 06:44:01;;;;;;;;;;;;;;;16.93;59.19;100164.38;4956789;28;1216;-54
2022/06/22 06:46:45;;;;;;;;;;;;;;;16.91;59.21;100172.06;4921218;29;1269;-53
2022/06/22 06:49:22;;;;;;;;;;;;;;;16.87;59.31;100162.72;4925789;29;1306;-54
2022/06/22 06:51:53;;;;;;;;;;;;;;;16.85;59.38;100167.72;4954426;29;1106;-54
2022/06/22 06:54:19;;;;;;;;;;;;;;;16.85;59.45;100175.94;4952261;29;1327;-53
2022/06/22 06:57:00;;;;;;;;;;;;;;;16.83;59.75;100175.41;4937897;29;1193;-53
2022/06/22 06:59:28;;;;;;;;;;;;;;;16.81;59.54;100163.91;4927001;28;1183;-54
2022/06/22 07:01:54;;;;;;;;;;;;;;;16.75;59.55;100163.94;4937837;29;1981;-54
2022/06/22 07:04:29;;;;;;;;;;;;;;;16.76;59.64;100171.09;4959711;28;1256;-51
2022/06/22 07:07:17;;;;;;;;;;;;;;;16.72;59.91;100180.19;4962393;28;1090;-49
2022/06/22 07:09:43;;;;;;;;;;;;;;;16.73;59.60;100166.19;4942451;29;1559;-50
2022/06/22 07:12:28;;;;;;;;;;;;;;;16.72;59.91;100172.78;4959615;29;1208;-51
2022/06/22 07:14:54;;;;;;;;;;;;;;;16.73;59.70;100177.16;4954264;28;1015;-53
2022/06/22 07:17:23;;;;;;;;;;;;;;;16.68;59.72;100174.44;4912253;29;1190;-52
2022/06/22 07:19:51;;;;;;;;;;;;;;;16.68;59.86;100168.16;4943169;29;1042;-53
2022/06/22 07:22:25;;;;;;;;;;;;;;;16.68;59.85;100177.19;4942007;29;1993;-55
2022/06/22 07:25:02;;;;;;;;;;;;;;;16.68;59.74;100170.91;4958694;29;967;-53
2022/06/22 07:27:27;;;;;;;;;;;;;;;16.64;59.82;100175.34;4959807;28;1456;-52
2022/06/22 07:30:06;;;;;;;;;;;;;;;16.60;59.82;100186.06;4959740;29;1022;-50
2022/06/22 07:32:50;;;;;;;;;;;;;;;16.58;59.89;100182.78;4943841;29;1350;-52
2022/06/22 07:35:18;;;;;;;;;;;;;;;16.59;59.79;100181.66;4959734;28;1580;-54
2022/06/22 07:37:53;;;;;;;;;;;;;;;16.59;59.82;100174.25;4945462;29;1271;-51
2022/06/22 07:40:21;;;;;;;;;;;;;;;16.58;59.70;100180.03;4940372;29;1906;-52
2022/06/22 07:42:48;;;;;;;;;;;;;;;16.52;60.08;100170.19;4957018;28;1287;-52
2022/06/22 07:45:14;;;;;;;;;;;;;;;16.55;59.87;100169.63;4941893;29;1015;-53
2022/06/22 07:47:49;;;;;;;;;;;;;;;16.52;59.85;100172.94;4939910;28;1467;-52
2022/06/22 07:50:16;;;;;;;;;;;;;;;16.51;59.61;100174.03;4958529;29;1260;-55
2022/06/22 07:52:47;;;;;;;;;;;;;;;16.48;59.92;100169.97;4960663;28;1607;-52
2022/06/22 07:55:19;;;;;;;;;;;;;;;16.47;59.75;100184.00;4941538;28;1136;-54
2022/06/22 07:57:48;;;;;;;;;;;;;;;16.46;59.77;100172.19;4938648;29;1489;-53
2022/06/22 08:00:19;;;;;;;;;;;;;;;16.48;59.91;100174.63;4941572;29;1911;-53
2022/06/22 08:02:59;;;;;;;;;;;;;;;16.45;59.64;100178.75;4940926;29;1204;-55
2022/06/22 08:05:26;;;;;;;;;;;;;;;16.47;59.71;100186.72;4959390;28;1391;-53
2022/06/22 08:07:56;;;;;;;;;;;;;;;16.42;59.73;100176.59;4941719;29;1176;-49
2022/06/22 08:10:23;;;;;;;;;;;;;;;16.43;60.07;100181.00;4941498;29;1089;-54
2022/06/22 08:12:55;;;;;;;;;;;;;;;16.41;59.84;100186.75;4944283;28;1039;-49
2022/06/22 08:15:20;;;;;;;;;;;;;;;16.39;60.02;100177.97;4965123;28;1049;-52
2022/06/22 08:17:52;;;;;;;;;;;;;;;16.38;59.92;100173.63;4962355;28;852;-55
2022/06/22 08:20:19;;;;;;;;;;;;;;;16.40;59.92;100179.63;4957319;28;1902;-52
2022/06/22 08:22:46;;;;;;;;;;;;;;;16.36;59.80;100178.56;4943330;29;1062;-52
2022/06/22 08:25:12;;;;;;;;;;;;;;;16.37;59.78;100180.22;4957669;29;955;-53
2022/06/22 08:27:39;;;;;;;;;;;;;;;16.39;59.75;100180.72;4957936;29;1089;-54
2022/06/22 08:30:05;;;;;;;;;;;;;;;16.36;59.89;100175.00;4956013;29;1161;-53
2022/06/22 08:32:36;;;;;;;;;;;;;;;16.36;59.80;100173.06;4940633;29;1398;-54
2022/06/22 08:35:14;;;;;;;;;;;;;;;16.36;59.78;100172.28;4957172;28;1003;-54
2022/06/22 08:37:40;;;;;;;;;;;;;;;16.32;59.97;100166.53;4958329;28;1084;-55
2022/06/22 08:40:07;;;;;;;;;;;;;;;16.33;59.87;100165.44;4945092;29;1975;-54
2022/06/22 08:42:33;;;;;;;;;;;;;;;16.29;60.05;100158.06;4964313;28;1109;-52
2022/06/22 08:45:04;;;;;;;;;;;;;;;16.31;59.85;100156.66;4971127;28;1181;-57
2022/06/22 08:47:42;;;;;;;;;;;;;;;16.31;59.95;100142.13;4950268;28;1379;-57
2022/06/22 08:50:08;;;;;;;;;;;;;;;16.29;60.11;100125.94;4970053;28;1234;-55
2022/06/22 08:52:40;;;;;;;;;;;;;;;16.24;60.20;100136.97;4968797;28;1214;-56
2022/06/22 08:55:22;;;;;;;;;;;;;;;16.23;60.09;100138.88;4967299;28;1225;-54
2022/06/22 08:58:00;;;;;;;;;;;;;;;16.24;60.17;100140.53;4965937;28;1159;-56
2022/06/22 09:00:35;;;;;;;;;;;;;;;16.23;60.04;100143.56;4974312;28;1902;-55
2022/06/22 09:03:15;;;;;;;;;;;;;;;16.21;59.93;100146.56;4972640;28;1138;-56
2022/06/22 09:05:43;;;;;;;;;;;;;;;16.21;59.86;100152.06;4970025;28;1324;-55
2022/06/22 09:08:09;;;;;;;;;;;;;;;16.21;60.04;100148.50;4969874;28;1216;-54
2022/06/22 09:10:53;;;;;;;;;;;;;;;16.22;60.03;100152.91;4972154;28;1253;-55
2022/06/22 09:13:32;;;;;;;;;;;;;;;16.24;59.88;100143.28;4959594;28;1154;-55
2022/06/22 09:16:20;;;;;;;;;;;;;;;16.11;60.36;100135.69;4938141;29;1165;-54
2022/06/22 09:19:04;;;;;;;;;;;;;;;16.03;60.48;100117.94;4934708;28;1496;-52
2022/06/22 09:21:29;;;;;;;;;;;;;;;16.03;60.50;100115.19;4959621;28;1911;-53
2022/06/22 09:24:04;;;;;;;;;;;;;;;16.02;60.43;100108.06;4954475;28;1263;-52
2022/06/22 09:26:32;;;;;;;;;;;;;;;16.06;60.34;100108.28;4952275;28;1145;-53
2022/06/22 09:28:58;;;;;;;;;;;;;;;16.05;60.40;100102.00;4954080;28;1648;-54
2022/06/22 09:31:42;;;;;;;;;;;;;;;16.03;60.41;100103.38;4952862;29;1181;-52
2022/06/22 09:34:23;;;;;;;;;;;;;;;16.01;60.35;100111.91;4940367;28;1082;-51
2022/06/22 09:37:09;;;;;;;;;;;;;;;16.04;60.48;100116.81;4957670;28;1220;-52
2022/06/22 09:39:38;;;;;;;;;;;;;;;15.99;60.39;100111.38;4944523;28;1197;-52
2022/06/22 09:42:03;;;;;;;;;;;;;;;15.99;60.42;100105.06;4964322;28;1978;-52
2022/06/22 09:44:35;;;;;;;;;;;;;;;16.01;60.53;100113.84;4961238;28;1090;-52
2022/06/22 09:47:09;;;;;;;;;;;;;;;16.01;60.59;100111.09;4962494;28;1272;-52
2022/06/22 09:49:38;;;;;;;;;;;;;;;15.97;60.46;100116.31;4956245;28;1296;-55
2022/06/22 09:52:08;;;;;;;;;;;;;;;15.99;60.38;100107.81;4959644;28;1192;-54
2022/06/22 09:57:34;;;;;;;;;;;;;;;15.99;60.33;100108.66;4954337;28;1226;-53
2022/06/22 10:00:02;;;;;;;;;;;;;;;15.99;60.40;100096.84;4956690;28;1203;-52
2022/06/22 10:02:42;;;;;;;;;;;;;;;15.97;60.48;100093.56;4938395;29;1231;-52
2022/06/22 10:05:07;;;;;;;;;;;;;;;15.96;60.60;100090.00;4955612;28;1233;-52
2022/06/22 10:07:33;;;;;;;;;;;;;;;15.96;60.32;100098.22;4963086;28;1216;-53
2022/06/22 10:10:03;;;;;;;;;;;;;;;15.94;60.39;100092.22;4966371;28;1200;-54
2022/06/22 10:12:48;;;;;;;;;;;;;;;15.97;60.49;100093.56;4941055;28;1229;-52
2022/06/22 10:15:19;;;;;;;;;;;;;;;15.95;60.45;100093.88;4968818;28;1072;-52
2022/06/22 10:18:03;;;;;;;;;;;;;;;15.94;60.81;100099.63;4958867;28;1264;-55
2022/06/22 10:20:38;;;;;;;;;;;;;;;15.92;60.62;100091.66;4956382;28;1906;-54
2022/06/22 10:23:06;;;;;;;;;;;;;;;15.95;60.57;100098.50;4954517;29;1306;-53
2022/06/22 10:25:52;;;;;;;;;;;;;;;15.91;60.40;100101.03;4966056;28;900;-51
2022/06/22 10:28:23;;;;;;;;;;;;;;;15.92;60.44;100105.38;4940858;29;1146;-53
2022/06/22 10:31:09;;;;;;;;;;;;;;;15.89;60.61;100100.47;4962185;28;961;-52
2022/06/22 10:33:34;;;;;;;;;;;;;;;15.90;60.58;100111.16;4921348;29;1195;-51
2022/06/22 10:36:13;;;;;;;;;;;;;;;15.89;60.47;100105.97;4958894;28;1152;-50
2022/06/22 10:38:50;;;;;;;;;;;;;;;15.86;60.67;100098.31;4940506;29;1333;-50
2022/06/22 10:47:03;;;;;;;;;;;;;;;15.90;60.48;100085.66;4956133;29;1229;-51
2022/06/22 10:49:36;;;;;;;;;;;;;;;15.87;60.38;100078.03;4957839;29;866;-52
2022/06/22 10:52:10;;;;;;;;;;;;;;;15.87;60.42;100084.31;4941740;29;1343;-54
2022/06/22 10:54:44;;;;;;;;;;;;;;;15.85;60.73;100072.81;4943061;29;1391;-53
2022/06/22 10:57:10;;;;;;;;;;;;;;;15.88;60.57;100076.94;4960586;28;1093;-49
2022/06/22 10:59:38;;;;;;;;;;;;;;;15.86;60.45;100079.13;4957706;28;1152;-54
2022/06/22 11:02:22;;;;;;;;;;;;;;;15.84;60.48;100081.34;4954563;29;2009;-50
2022/06/22 11:05:09;;;;;;;;;;;;;;;15.85;60.58;100072.81;4961525;28;1161;-52
2022/06/22 11:07:35;;;;;;;;;;;;;;;15.85;60.30;100075.56;4941523;28;1176;-51
2022/06/22 11:10:14;;;;;;;;;;;;;;;15.86;60.56;100065.41;4959855;29;959;-53
2022/06/22 11:13:02;;;;;;;;;;;;;;;15.83;60.78;100055.03;4962653;28;1399;-54
2022/06/22 11:15:53;;;;;;;;;;;;;;;15.85;60.36;100056.38;4940300;28;1253;-54
2022/06/22 11:18:23;;;;;;;;;;;;;;;15.87;60.43;100059.63;4955711;28;1243;-52
2022/06/22 11:20:53;;;;;;;;;;;;;;;15.84;60.74;100052.00;4960378;28;1879;-54
2022/06/22 11:23:37;;;;;;;;;;;;;;;15.82;60.47;100062.44;4952338;29;1367;-51
2022/06/22 11:31:54;;;;;;;;;;;;;;;15.84;60.72;100062.16;4955028;28;1264;-51
2022/06/22 11:34:40;;;;;;;;;;;;;;;15.85;60.42;100050.91;4957668;28;1508;-55
2022/06/22 11:37:11;;;;;;;;;;;;;;;15.83;60.29;100055.81;4959783;28;1227;-54
2022/06/22 11:39:52;;;;;;;;;;;;;;;15.83;60.47;100066.00;4957939;28;1320;-54
2022/06/22 11:42:18;;;;;;;;;;;;;;;15.81;60.32;100073.66;4941023;29;1910;-54
2022/06/22 11:47:54;;;;;;;;;;;;;;;15.83;60.42;100066.00;4937589;29;1487;-56
2022/06/22 11:50:27;;;;;;;;;;;;;;;15.82;60.49;100072.56;4960781;28;1260;-54
2022/06/22 11:53:09;;;;;;;;;;;;;;;15.83;60.44;100069.53;4935024;28;1201;-52
2022/06/22 11:55:39;;;;;;;;;;;;;;;15.82;60.54;100064.34;4952783;28;1429;-52
2022/06/22 11:58:04;;;;;;;;;;;;;;;15.83;60.40;100061.31;4939795;28;1470;-51
2022/06/22 12:00:41;;;;;;;;;;;;;;;15.82;60.48;100069.81;4960125;28;1963;-53
2022/06/22 12:03:25;;;;;;;;;;;;;;;15.80;60.65;100063.81;4944742;29;1233;-52
2022/06/22 12:05:51;;;;;;;;;;;;;;;15.80;60.58;100058.34;4956035;29;1455;-53
2022/06/22 12:08:16;;;;;;;;;;;;;;;15.80;60.55;100056.41;4959602;28;1193;-55
2022/06/22 12:10:48;;;;;;;;;;;;;;;15.80;60.49;100061.88;4959378;28;1241;-54
2022/06/22 12:13:22;;;;;;;;;;;;;;;15.83;60.29;100063.25;4964683;28;1342;-50
2022/06/22 12:16:00;;;;;;;;;;;;;;;15.82;60.35;100061.59;4962174;28;1219;-52
2022/06/22 12:18:28;;;;;;;;;;;;;;;15.80;60.49;100064.63;4959195;28;1498;-53
2022/06/22 12:20:53;;;;;;;;;;;;;;;15.79;60.41;100057.50;4959114;28;1898;-51
2022/06/22 12:23:29;;;;;;;;;;;;;;;15.79;60.58;100053.94;4959206;28;1251;-55
2022/06/22 12:25:59;;;;;;;;;;;;;;;15.78;60.34;100053.13;4956024;28;1537;-52
2022/06/22 12:28:32;;;;;;;;;;;;;;;15.79;60.64;100045.69;4954987;28;1425;-54
2022/06/22 12:30:58;;;;;;;;;;;;;;;15.74;60.51;100035.59;4936732;28;1160;-51
2022/06/22 12:33:36;;;;;;;;;;;;;;;15.74;60.61;100041.88;4957372;28;1437;-51
2022/06/22 12:36:01;;;;;;;;;;;;;;;15.81;60.19;100038.03;4936719;29;1224;-53
2022/06/22 12:38:35;;;;;;;;;;;;;;;15.76;60.38;100043.53;4958819;28;1291;-54
2022/06/22 12:41:03;;;;;;;;;;;;;;;15.72;60.54;100033.16;4939942;28;1902;-53
2022/06/22 12:43:32;;;;;;;;;;;;;;;15.76;60.31;100051.75;4950605;29;1086;-52
2022/06/22 12:46:03;;;;;;;;;;;;;;;15.76;60.44;100044.34;4965691;28;1085;-51
2022/06/22 12:48:44;;;;;;;;;;;;;;;15.73;60.59;100045.72;4958574;28;1147;-53
2022/06/22 12:51:10;;;;;;;;;;;;;;;15.73;60.52;100034.75;4956878;28;1375;-49
2022/06/22 12:53:37;;;;;;;;;;;;;;;15.80;60.26;100033.66;4957783;28;1276;-52
2022/06/22 12:56:15;;;;;;;;;;;;;;;15.77;60.61;100025.97;4940259;28;1277;-48
2022/06/22 12:58:41;;;;;;;;;;;;;;;15.75;60.45;100015.28;4958065;28;1263;-54
2022/06/22 13:01:06;;;;;;;;;;;;;;;15.76;60.31;100016.13;4955180;28;1899;-49
2022/06/22 13:03:37;;;;;;;;;;;;;;;15.76;60.33;100010.66;4941140;29;1055;-53
2022/06/22 13:06:02;;;;;;;;;;;;;;;15.84;60.30;100007.31;4958483;28;1089;-56
2022/06/22 13:08:28;;;;;;;;;;;;;;;15.94;60.23;100009.16;4940110;29;1134;-53
2022/06/22 13:10:56;;;;;;;;;;;;;;;15.96;60.38;100005.00;4941459;28;1176;-52
2022/06/22 13:13:28;;;;;;;;;;;;;;;16.99;61.99;100014.88;4959679;28;1152;-52
2022/06/22 13:16:01;;;;;;;;;;;;;;;16.68;62.56;100014.44;4959520;28;1063;-55
2022/06/22 13:18:45;;;;;;;;;;;;;;;16.45;62.11;100005.06;4956620;28;1193;-53
2022/06/22 13:21:20;;;;;;;;;;;;;;;16.39;61.64;99999.63;4943665;29;1899;-53
2022/06/22 13:23:45;;;;;;;;;;;;;;;16.51;61.32;99996.50;4956999;28;1246;-51
2022/06/22 13:26:20;;;;;;;;;;;;;;;16.39;61.14;99993.34;4960908;28;1200;-53
2022/06/22 13:28:48;;;;;;;;;;;;;;;16.34;61.31;99979.66;4963662;28;1211;-53
2022/06/22 13:31:15;;;;;;;;;;;;;;;16.38;60.92;99998.03;4938304;28;1445;-53
2022/06/22 13:33:42;;;;;;;;;;;;;;;16.26;61.04;100003.09;4938729;29;1391;-49
2022/06/22 13:36:09;;;;;;;;;;;;;;;16.12;61.04;100008.44;4944179;28;1233;-51